sensor_id;sensor_type;location;lat;lon;timestamp;pressure;altitude;pressure_sealevel;temperature;humidity
50123;BME280;36021;48.670;6.184;2023-02-17T00:01:17;99945.06;;;11.54;100.00
50123;BME280;36021;48.670;6.184;2023-02-17T00:03:44;99952.25;;;11.55;100.00
50123;BME280;36021;48.670;6.184;2023-02-17T00:06:12;99954.44;;;11.52;100.00
50123;BME280;36021;48.670;6.184;2023-02-17T00:08:38;99951.69;;;11.58;100.00
50123;BME280;36021;48.670;6.184;2023-02-17T00:11:04;99954.72;;;11.56;100.00
50123;BME280;36021;48.670;6.184;2023-02-17T00:13:30;99954.19;;;11.49;100.00
50123;BME280;36021;48.670;6.184;2023-02-17T00:15:55;99955.56;;;11.52;100.00
50123;BME280;36021;48.670;6.184;2023-02-17T00:18:21;99961.63;;;11.54;100.00
50123;BME280;36021;48.670;6.184;2023-02-17T00:20:47;99969.34;;;11.57;100.00
50123;BME280;36021;48.670;6.184;2023-02-17T00:23:13;99969.91;;;11.54;100.00
50123;BME280;36021;48.670;6.184;2023-02-17T00:25:38;99966.59;;;11.57;100.00
50123;BME280;36021;48.670;6.184;2023-02-17T00:28:04;99965.50;;;11.52;100.00
50123;BME280;36021;48.670;6.184;2023-02-17T00:30:29;99964.66;;;11.52;100.00
50123;BME280;36021;48.670;6.184;2023-02-17T00:32:56;99973.25;;;11.50;100.00
50123;BME280;36021;48.670;6.184;2023-02-17T00:35:22;99972.97;;;11.47;100.00
50123;BME280;36021;48.670;6.184;2023-02-17T00:37:49;99961.09;;;11.46;100.00
50123;BME280;36021;48.670;6.184;2023-02-17T00:40:15;99964.38;;;11.48;100.00
50123;BME280;36021;48.670;6.184;2023-02-17T00:42:40;99973.78;;;11.47;100.00
50123;BME280;36021;48.670;6.184;2023-02-17T00:45:06;99973.22;;;11.45;100.00
50123;BME280;36021;48.670;6.184;2023-02-17T00:47:32;99973.25;;;11.50;100.00
50123;BME280;36021;48.670;6.184;2023-02-17T00:49:58;99982.91;;;11.43;100.00
50123;BME280;36021;48.670;6.184;2023-02-17T00:52:27;99980.94;;;11.48;100.00
50123;BME280;36021;48.670;6.184;2023-02-17T00:54:52;99978.19;;;11.48;100.00
50123;BME280;36021;48.670;6.184;2023-02-17T00:57:21;99977.94;;;11.45;100.00
50123;BME280;36021;48.670;6.184;2023-02-17T00:59:46;99971.56;;;11.49;100.00
50123;BME280;36021;48.670;6.184;2023-02-17T01:02:12;99985.66;;;11.38;100.00
50123;BME280;36021;48.670;6.184;2023-02-17T01:04:37;99982.91;;;11.38;100.00
50123;BME280;36021;48.670;6.184;2023-02-17T01:07:03;99986.50;;;11.38;100.00
50123;BME280;36021;48.670;6.184;2023-02-17T01:09:29;99991.19;;;11.43;100.00
50123;BME280;36021;48.670;6.184;2023-02-17T01:11:54;99987.03;;;11.45;100.00
50123;BME280;36021;48.670;6.184;2023-02-17T01:14:20;99997.53;;;11.38;100.00
50123;BME280;36021;48.670;6.184;2023-02-17T01:16:47;99984.28;;;11.40;100.00
50123;BME280;36021;48.670;6.184;2023-02-17T01:19:15;99986.50;;;11.38;100.00
50123;BME280;36021;48.670;6.184;2023-02-17T01:21:41;99987.84;;;11.36;100.00
50123;BME280;36021;48.670;6.184;2023-02-17T01:24:10;99989.25;;;11.38;100.00
50123;BME280;36021;48.670;6.184;2023-02-17T01:26:35;99988.13;;;11.39;100.00
50123;BME280;36021;48.670;6.184;2023-02-17T01:29:02;99973.22;;;11.35;100.00
50123;BME280;36021;48.670;6.184;2023-02-17T01:31:31;99988.16;;;11.34;100.00
50123;BME280;36021;48.670;6.184;2023-02-17T01:34:00;99985.66;;;11.28;100.00
50123;BME280;36021;48.670;6.184;2023-02-17T01:36:27;99985.66;;;11.23;100.00
50123;BME280;36021;48.670;6.184;2023-02-17T01:38:52;99983.72;;;11.23;100.00
50123;BME280;36021;48.670;6.184;2023-02-17T01:41:19;99993.66;;;11.19;100.00
50123;BME280;36021;48.670;6.184;2023-02-17T01:46:33;99976.00;;;11.15;100.00
50123;BME280;36021;48.670;6.184;2023-02-17T01:48:58;99985.66;;;11.23;100.00
50123;BME280;36021;48.670;6.184;2023-02-17T01:51:27;99966.34;;;11.23;100.00
50123;BME280;36021;48.670;6.184;2023-02-17T01:53:58;99974.09;;;11.16;100.00
50123;BME280;36021;48.670;6.184;2023-02-17T01:56:27;99977.91;;;11.10;100.00
50123;BME280;36021;48.670;6.184;2023-02-17T01:58:58;99965.50;;;11.17;100.00
50123;BME280;36021;48.670;6.184;2023-02-17T02:01:25;99960.00;;;11.02;100.00
50123;BME280;36021;48.670;6.184;2023-02-17T02:03:50;99970.19;;;11.07;100.00
50123;BME280;36021;48.670;6.184;2023-02-17T02:06:17;99963.84;;;11.01;100.00
50123;BME280;36021;48.670;6.184;2023-02-17T02:08:47;99966.88;;;10.99;100.00
50123;BME280;36021;48.670;6.184;2023-02-17T02:11:15;99980.69;;;10.89;100.00
50123;BME280;36021;48.670;6.184;2023-02-17T02:13:41;99977.06;;;10.84;100.00
50123;BME280;36021;48.670;6.184;2023-02-17T02:16:28;99979.84;;;10.89;100.00
50123;BME280;36021;48.670;6.184;2023-02-17T02:21:39;99984.78;;;10.87;100.00
50123;BME280;36021;48.670;6.184;2023-02-17T02:24:58;99974.03;;;10.90;100.00
50123;BME280;36021;48.670;6.184;2023-02-17T02:37:20;99968.78;;;10.84;100.00
50123;BME280;36021;48.670;6.184;2023-02-17T02:39:49;99960.81;;;10.82;100.00
50123;BME280;36021;48.670;6.184;2023-02-17T02:42:16;99957.75;;;10.84;100.00
50123;BME280;36021;48.670;6.184;2023-02-17T02:44:43;99964.66;;;10.81;100.00
50123;BME280;36021;48.670;6.184;2023-02-17T02:49:53;99951.69;;;10.82;100.00
50123;BME280;36021;48.670;6.184;2023-02-17T02:52:32;99949.47;;;10.84;100.00
50123;BME280;36021;48.670;6.184;2023-02-17T03:05:06;99942.56;;;10.71;100.00
50123;BME280;36021;48.670;6.184;2023-02-17T03:07:58;99941.47;;;10.67;100.00
50123;BME280;36021;48.670;6.184;2023-02-17T03:10:21;99944.75;;;10.59;100.00
50123;BME280;36021;48.670;6.184;2023-02-17T03:12:47;99945.59;;;10.60;100.00
50123;BME280;36021;48.670;6.184;2023-02-17T03:15:20;99941.72;;;10.61;100.00
50123;BME280;36021;48.670;6.184;2023-02-17T03:17:49;99938.97;;;10.56;100.00
50123;BME280;36021;48.670;6.184;2023-02-17T03:20:14;99933.44;;;10.56;100.00
50123;BME280;36021;48.670;6.184;2023-02-17T03:22:40;99938.41;;;10.54;100.00
50123;BME280;36021;48.670;6.184;2023-02-17T03:25:08;99935.66;;;10.64;100.00
50123;BME280;36021;48.670;6.184;2023-02-17T03:27:33;99935.13;;;10.67;100.00
50123;BME280;36021;48.670;6.184;2023-02-17T03:30:01;99939.00;;;10.66;100.00
50123;BME280;36021;48.670;6.184;2023-02-17T03:32:26;99937.88;;;10.67;100.00
50123;BME280;36021;48.670;6.184;2023-02-17T03:34:53;99932.63;;;10.70;100.00
50123;BME280;36021;48.670;6.184;2023-02-17T03:37:18;99939.25;;;10.59;100.00
50123;BME280;36021;48.670;6.184;2023-02-17T03:39:44;99935.13;;;10.62;100.00
50123;BME280;36021;48.670;6.184;2023-02-17T03:42:09;99931.25;;;10.68;100.00
50123;BME280;36021;48.670;6.184;2023-02-17T03:44:35;99937.59;;;10.58;100.00
50123;BME280;36021;48.670;6.184;2023-02-17T03:47:00;99941.44;;;10.57;100.00
50123;BME280;36021;48.670;6.184;2023-02-17T03:49:26;99931.53;;;10.61;100.00
50123;BME280;36021;48.670;6.184;2023-02-17T03:51:51;99932.38;;;10.62;100.00
50123;BME280;36021;48.670;6.184;2023-02-17T03:54:19;99939.53;;;10.63;100.00
50123;BME280;36021;48.670;6.184;2023-02-17T03:56:46;99943.13;;;10.63;100.00
50123;BME280;36021;48.670;6.184;2023-02-17T03:59:12;99948.91;;;10.62;100.00
50123;BME280;36021;48.670;6.184;2023-02-17T04:01:37;99953.56;;;10.51;100.00
50123;BME280;36021;48.670;6.184;2023-02-17T04:04:03;99960.97;;;10.45;100.00
50123;BME280;36021;48.670;6.184;2023-02-17T04:06:28;99956.06;;;10.53;100.00
50123;BME280;36021;48.670;6.184;2023-02-17T04:08:54;99952.44;;;10.47;100.00
50123;BME280;36021;48.670;6.184;2023-02-17T04:11:19;99967.03;;;10.42;100.00
50123;BME280;36021;48.670;6.184;2023-02-17T04:13:45;99959.88;;;10.41;100.00
50123;BME280;36021;48.670;6.184;2023-02-17T04:16:11;99964.84;;;10.44;100.00
50123;BME280;36021;48.670;6.184;2023-02-17T04:18:36;99959.88;;;10.41;100.00
50123;BME280;36021;48.670;6.184;2023-02-17T04:21:02;99957.94;;;10.37;100.00
50123;BME280;36021;48.670;6.184;2023-02-17T04:23:28;99957.66;;;10.38;100.00
50123;BME280;36021;48.670;6.184;2023-02-17T04:25:53;99954.63;;;10.40;100.00
50123;BME280;36021;48.670;6.184;2023-02-17T04:28:19;99963.72;;;10.40;100.00
50123;BME280;36021;48.670;6.184;2023-02-17T04:30:46;99967.00;;;10.37;100.00
50123;BME280;36021;48.670;6.184;2023-02-17T04:33:14;99967.03;;;10.42;100.00
50123;BME280;36021;48.670;6.184;2023-02-17T04:35:40;99959.91;;;10.47;100.00
50123;BME280;36021;48.670;6.184;2023-02-17T04:38:09;99965.13;;;10.48;100.00
50123;BME280;36021;48.670;6.184;2023-02-17T04:40:35;99969.25;;;10.45;100.00
50123;BME280;36021;48.670;6.184;2023-02-17T04:43:01;99973.13;;;10.50;100.00
50123;BME280;36021;48.670;6.184;2023-02-17T04:45:27;99975.31;;;10.48;100.00
50123;BME280;36021;48.670;6.184;2023-02-17T04:47:52;99972.84;;;10.46;100.00
50123;BME280;36021;48.670;6.184;2023-02-17T04:50:18;99973.38;;;10.43;100.00
50123;BME280;36021;48.670;6.184;2023-02-17T04:52:45;99973.69;;;10.47;100.00
50123;BME280;36021;48.670;6.184;2023-02-17T04:55:10;99975.84;;;10.39;100.00
50123;BME280;36021;48.670;6.184;2023-02-17T04:57:38;99991.25;;;10.40;100.00
50123;BME280;36021;48.670;6.184;2023-02-17T05:00:04;99999.53;;;10.40;100.00
50123;BME280;36021;48.670;6.184;2023-02-17T05:02:31;99990.72;;;10.33;100.00
50123;BME280;36021;48.670;6.184;2023-02-17T05:04:57;99995.69;;;10.36;100.00
50123;BME280;36021;48.670;6.184;2023-02-17T05:07:22;99992.09;;;10.36;100.00
50123;BME280;36021;48.670;6.184;2023-02-17T05:09:48;100008.91;;;10.39;100.00
50123;BME280;36021;48.670;6.184;2023-02-17T05:12:13;99996.22;;;10.33;100.00
50123;BME280;36021;48.670;6.184;2023-02-17T05:14:39;99992.38;;;10.44;100.00
50123;BME280;36021;48.670;6.184;2023-02-17T05:17:05;99985.78;;;10.45;100.00
50123;BME280;36021;48.670;6.184;2023-02-17T05:19:31;99987.16;;;10.43;100.00
50123;BME280;36021;48.670;6.184;2023-02-17T05:21:57;99988.56;;;10.51;100.00
50123;BME280;36021;48.670;6.184;2023-02-17T05:24:22;99990.47;;;10.45;100.00
50123;BME280;36021;48.670;6.184;2023-02-17T05:26:48;99988.84;;;10.49;100.00
50123;BME280;36021;48.670;6.184;2023-02-17T05:29:14;99984.13;;;10.44;100.00
50123;BME280;36021;48.670;6.184;2023-02-17T05:31:40;99983.88;;;10.46;100.00
50123;BME280;36021;48.670;6.184;2023-02-17T05:34:06;99980.00;;;10.47;100.00
50123;BME280;36021;48.670;6.184;2023-02-17T05:36:32;99986.88;;;10.44;100.00
50123;BME280;36021;48.670;6.184;2023-02-17T05:38:57;99982.50;;;10.49;100.00
50123;BME280;36021;48.670;6.184;2023-02-17T05:41:23;99992.38;;;10.44;100.00
50123;BME280;36021;48.670;6.184;2023-02-17T05:43:48;99996.28;;;10.49;100.00
50123;BME280;36021;48.670;6.184;2023-02-17T05:46:14;100001.78;;;10.49;100.00
50123;BME280;36021;48.670;6.184;2023-02-17T05:48:39;99997.91;;;10.44;100.00
50123;BME280;36021;48.670;6.184;2023-02-17T05:51:05;99998.44;;;10.41;100.00
50123;BME280;36021;48.670;6.184;2023-02-17T05:53:32;99998.47;;;10.52;100.00
50123;BME280;36021;48.670;6.184;2023-02-17T05:55:58;100003.41;;;10.44;100.00
50123;BME280;36021;48.670;6.184;2023-02-17T05:58:24;99991.00;;;10.47;100.00
50123;BME280;36021;48.670;6.184;2023-02-17T06:00:50;99997.09;;;10.49;100.00
50123;BME280;36021;48.670;6.184;2023-02-17T06:03:17;100001.78;;;10.43;100.00
50123;BME280;36021;48.670;6.184;2023-02-17T06:05:43;100003.69;;;10.48;100.00
50123;BME280;36021;48.670;6.184;2023-02-17T06:08:09;100002.03;;;10.47;100.00
50123;BME280;36021;48.670;6.184;2023-02-17T06:10:34;100008.38;;;10.48;100.00
50123;BME280;36021;48.670;6.184;2023-02-17T06:13:00;100010.06;;;10.49;100.00
50123;BME280;36021;48.670;6.184;2023-02-17T06:15:25;100011.69;;;10.44;100.00
50123;BME280;36021;48.670;6.184;2023-02-17T06:17:51;100027.13;;;10.45;100.00
50123;BME280;36021;48.670;6.184;2023-02-17T06:20:17;100015.28;;;10.45;100.00
50123;BME280;36021;48.670;6.184;2023-02-17T06:22:42;100012.25;;;10.47;100.00
50123;BME280;36021;48.670;6.184;2023-02-17T06:25:08;100025.75;;;10.48;100.00
50123;BME280;36021;48.670;6.184;2023-02-17T06:27:34;100019.41;;;10.42;100.00
50123;BME280;36021;48.670;6.184;2023-02-17T06:29:59;100010.28;;;10.37;100.00
50123;BME280;36021;48.670;6.184;2023-02-17T06:32:29;100013.31;;;10.40;100.00
50123;BME280;36021;48.670;6.184;2023-02-17T06:34:56;100007.53;;;10.37;100.00
50123;BME280;36021;48.670;6.184;2023-02-17T06:37:21;100018.28;;;10.38;100.00
50123;BME280;36021;48.670;6.184;2023-02-17T06:39:47;100024.88;;;10.37;100.00
50123;BME280;36021;48.670;6.184;2023-02-17T06:42:12;100022.41;;;10.36;100.00
50123;BME280;36021;48.670;6.184;2023-02-17T06:44:38;100036.97;;;10.26;100.00
50123;BME280;36021;48.670;6.184;2023-02-17T06:47:03;100036.44;;;10.34;100.00
50123;BME280;36021;48.670;6.184;2023-02-17T06:49:29;100040.31;;;10.33;100.00
50123;BME280;36021;48.670;6.184;2023-02-17T06:51:56;100044.41;;;10.31;100.00
50123;BME280;36021;48.670;6.184;2023-02-17T06:54:22;100039.72;;;10.26;100.00
50123;BME280;36021;48.670;6.184;2023-02-17T06:56:48;100039.72;;;10.26;100.00
50123;BME280;36021;48.670;6.184;2023-02-17T06:59:13;100045.22;;;10.26;100.00
50123;BME280;36021;48.670;6.184;2023-02-17T07:01:40;100050.16;;;10.24;100.00
50123;BME280;36021;48.670;6.184;2023-02-17T07:04:07;100048.81;;;10.27;100.00
50123;BME280;36021;48.670;6.184;2023-02-17T07:06:32;100066.97;;;10.23;100.00
50123;BME280;36021;48.670;6.184;2023-02-17T07:08:58;100064.75;;;10.25;100.00
50123;BME280;36021;48.670;6.184;2023-02-17T07:11:23;100062.28;;;10.23;100.00
50123;BME280;36021;48.670;6.184;2023-02-17T07:13:50;100061.72;;;10.21;100.00
50123;BME280;36021;48.670;6.184;2023-02-17T07:16:15;100051.81;;;10.20;100.00
50123;BME280;36021;48.670;6.184;2023-02-17T07:18:42;100063.94;;;10.24;100.00
50123;BME280;36021;48.670;6.184;2023-02-17T07:21:09;100067.28;;;10.26;100.00
50123;BME280;36021;48.670;6.184;2023-02-17T07:23:35;100071.13;;;10.25;100.00
50123;BME280;36021;48.670;6.184;2023-02-17T07:26:01;100071.69;;;10.27;100.00
50123;BME280;36021;48.670;6.184;2023-02-17T07:28:27;100065.06;;;10.28;100.00
50123;BME280;36021;48.670;6.184;2023-02-17T07:30:53;100074.47;;;10.37;100.00
50123;BME280;36021;48.670;6.184;2023-02-17T07:33:19;100070.63;;;10.38;100.00
50123;BME280;36021;48.670;6.184;2023-02-17T07:35:46;100068.97;;;10.37;100.00
50123;BME280;36021;48.670;6.184;2023-02-17T07:38:11;100080.56;;;10.44;100.00
50123;BME280;36021;48.670;6.184;2023-02-17T07:40:37;100087.47;;;10.42;100.00
50123;BME280;36021;48.670;6.184;2023-02-17T07:43:02;100094.94;;;10.47;100.00
50123;BME280;36021;48.670;6.184;2023-02-17T07:45:28;100083.91;;;10.47;100.00
50123;BME280;36021;48.670;6.184;2023-02-17T07:47:53;100088.34;;;10.53;100.00
50123;BME280;36021;48.670;6.184;2023-02-17T07:50:19;100092.19;;;10.47;100.00
50123;BME280;36021;48.670;6.184;2023-02-17T07:52:45;100084.47;;;10.54;100.00
50123;BME280;36021;48.670;6.184;2023-02-17T07:55:13;100084.72;;;10.47;100.00
50123;BME280;36021;48.670;6.184;2023-02-17T07:57:39;100085.56;;;10.48;100.00
50123;BME280;36021;48.670;6.184;2023-02-17T08:00:04;100087.78;;;10.51;100.00
50123;BME280;36021;48.670;6.184;2023-02-17T08:02:38;100079.78;;;10.49;100.00
50123;BME280;36021;48.670;6.184;2023-02-17T08:05:03;100075.94;;;10.55;100.00
50123;BME280;36021;48.670;6.184;2023-02-17T08:07:29;100087.81;;;10.56;100.00
50123;BME280;36021;48.670;6.184;2023-02-17T08:09:57;100092.78;;;10.59;100.00
50123;BME280;36021;48.670;6.184;2023-02-17T08:12:41;100091.66;;;10.55;100.00
50123;BME280;36021;48.670;6.184;2023-02-17T08:15:25;100096.94;;;10.61;100.00
50123;BME280;36021;48.670;6.184;2023-02-17T08:17:51;100112.09;;;10.64;100.00
50123;BME280;36021;48.670;6.184;2023-02-17T08:20:17;100105.22;;;10.66;100.00
50123;BME280;36021;48.670;6.184;2023-02-17T08:22:43;100104.66;;;10.59;100.00
50123;BME280;36021;48.670;6.184;2023-02-17T08:25:08;100102.97;;;10.58;100.00
50123;BME280;36021;48.670;6.184;2023-02-17T08:27:34;100110.75;;;10.66;100.00
50123;BME280;36021;48.670;6.184;2023-02-17T08:30:00;100108.78;;;10.57;100.00
50123;BME280;36021;48.670;6.184;2023-02-17T08:32:27;100105.50;;;10.65;100.00
50123;BME280;36021;48.670;6.184;2023-02-17T08:34:55;100101.59;;;10.61;100.00
50123;BME280;36021;48.670;6.184;2023-02-17T08:37:20;100108.28;;;10.70;100.00
50123;BME280;36021;48.670;6.184;2023-02-17T08:39:46;100108.28;;;10.70;100.00
50123;BME280;36021;48.670;6.184;2023-02-17T08:42:11;100119.31;;;10.75;100.00
50123;BME280;36021;48.670;6.184;2023-02-17T08:44:37;100116.56;;;10.80;100.00
50123;BME280;36021;48.670;6.184;2023-02-17T08:47:03;100113.31;;;10.83;100.00
50123;BME280;36021;48.670;6.184;2023-02-17T08:49:29;100116.63;;;10.90;100.00
50123;BME280;36021;48.670;6.184;2023-02-17T08:51:58;100108.34;;;10.85;100.00
50123;BME280;36021;48.670;6.184;2023-02-17T08:54:24;100109.44;;;10.84;100.00
50123;BME280;36021;48.670;6.184;2023-02-17T08:56:49;100119.63;;;10.78;100.00
50123;BME280;36021;48.670;6.184;2023-02-17T08:59:15;100122.91;;;10.80;100.00
50123;BME280;36021;48.670;6.184;2023-02-17T09:01:41;100120.47;;;10.84;100.00
50123;BME280;36021;48.670;6.184;2023-02-17T09:04:07;100110.56;;;10.88;100.00
50123;BME280;36021;48.670;6.184;2023-02-17T09:06:37;100109.47;;;10.89;100.00
50123;BME280;36021;48.670;6.184;2023-02-17T09:09:05;100107.25;;;10.91;100.00
50123;BME280;36021;48.670;6.184;2023-02-17T09:11:31;100096.25;;;11.01;100.00
50123;BME280;36021;48.670;6.184;2023-02-17T09:13:56;100094.63;;;11.05;100.00
50123;BME280;36021;48.670;6.184;2023-02-17T09:16:22;100092.97;;;11.09;100.00
50123;BME280;36021;48.670;6.184;2023-02-17T09:18:51;100102.94;;;11.25;100.00
50123;BME280;36021;48.670;6.184;2023-02-17T09:21:17;100104.63;;;11.31;100.00
50123;BME280;36021;48.670;6.184;2023-02-17T09:23:44;100107.38;;;11.36;100.00
50123;BME280;36021;48.670;6.184;2023-02-17T09:26:10;100101.28;;;11.24;100.00
50123;BME280;36021;48.670;6.184;2023-02-17T09:28:36;100107.66;;;11.35;100.00
50123;BME280;36021;48.670;6.184;2023-02-17T09:31:09;100114.00;;;11.40;100.00
50123;BME280;36021;48.670;6.184;2023-02-17T09:33:35;100119.25;;;11.47;100.00
50123;BME280;36021;48.670;6.184;2023-02-17T09:36:01;100122.03;;;11.62;100.00
50123;BME280;36021;48.670;6.184;2023-02-17T09:38:27;100116.25;;;11.69;100.00
50123;BME280;36021;48.670;6.184;2023-02-17T09:40:53;100112.94;;;11.57;100.00
50123;BME280;36021;48.670;6.184;2023-02-17T09:43:20;100112.66;;;11.63;100.00
50123;BME280;36021;48.670;6.184;2023-02-17T09:45:50;100111.81;;;11.52;100.00
50123;BME280;36021;48.670;6.184;2023-02-17T09:48:17;100110.16;;;11.52;100.00
50123;BME280;36021;48.670;6.184;2023-02-17T09:50:50;100117.91;;;11.60;100.00
50123;BME280;36021;48.670;6.184;2023-02-17T09:55:51;100114.56;;;11.52;100.00
50123;BME280;36021;48.670;6.184;2023-02-17T09:58:30;100123.44;;;11.65;100.00
50123;BME280;36021;48.670;6.184;2023-02-17T10:00:59;100127.88;;;11.76;100.00
50123;BME280;36021;48.670;6.184;2023-02-17T10:03:31;100126.22;;;11.80;100.00
50123;BME280;36021;48.670;6.184;2023-02-17T10:08:33;100133.94;;;11.88;100.00
50123;BME280;36021;48.670;6.184;2023-02-17T10:11:03;100111.56;;;12.05;100.00
50123;BME280;36021;48.670;6.184;2023-02-17T10:13:33;100121.22;;;12.17;100.00
50123;BME280;36021;48.670;6.184;2023-02-17T10:16:00;100116.53;;;12.23;100.00
50123;BME280;36021;48.670;6.184;2023-02-17T10:18:42;100116.53;;;12.18;100.00
50123;BME280;36021;48.670;6.184;2023-02-17T10:21:17;100125.69;;;11.93;100.00
50123;BME280;36021;48.670;6.184;2023-02-17T10:23:46;100121.53;;;12.00;100.00
50123;BME280;36021;48.670;6.184;2023-02-17T10:28:43;100127.88;;;11.86;100.00
50123;BME280;36021;48.670;6.184;2023-02-17T10:31:12;100130.91;;;11.94;100.00
50123;BME280;36021;48.670;6.184;2023-02-17T10:36:19;100127.88;;;11.76;100.00
50123;BME280;36021;48.670;6.184;2023-02-17T10:38:50;100133.97;;;11.83;100.00
50123;BME280;36021;48.670;6.184;2023-02-17T10:41:16;100138.66;;;11.77;100.00
50123;BME280;36021;48.670;6.184;2023-02-17T10:43:44;100141.41;;;11.82;100.00
50123;BME280;36021;48.670;6.184;2023-02-17T10:46:11;100136.72;;;11.88;100.00
50123;BME280;36021;48.670;6.184;2023-02-17T10:48:38;100131.75;;;11.80;100.00
50123;BME280;36021;48.670;6.184;2023-02-17T10:51:06;100135.91;;;11.82;100.00
50123;BME280;36021;48.670;6.184;2023-02-17T10:53:33;100134.50;;;11.85;100.00
50123;BME280;36021;48.670;6.184;2023-02-17T10:58:36;100135.09;;;11.87;100.00
50123;BME280;36021;48.670;6.184;2023-02-17T11:01:04;100145.31;;;11.96;100.00
50123;BME280;36021;48.670;6.184;2023-02-17T11:03:32;100142.53;;;11.76;100.00
50123;BME280;36021;48.670;6.184;2023-02-17T11:06:18;100139.47;;;11.73;100.00
50123;BME280;36021;48.670;6.184;2023-02-17T11:08:48;100140.59;;;11.82;100.00
50123;BME280;36021;48.670;6.184;2023-02-17T11:11:21;100148.03;;;11.91;100.00
50123;BME280;36021;48.670;6.184;2023-02-17T11:16:32;100127.88;;;12.11;100.00
50123;BME280;36021;48.670;6.184;2023-02-17T11:18:59;100131.19;;;12.23;100.00
50123;BME280;36021;48.670;6.184;2023-02-17T11:21:26;100128.13;;;12.30;100.00
50123;BME280;36021;48.670;6.184;2023-02-17T11:23:57;100131.69;;;12.40;100.00
50123;BME280;36021;48.670;6.184;2023-02-17T11:26:24;100131.13;;;12.43;100.00
50123;BME280;36021;48.670;6.184;2023-02-17T11:28:50;100132.75;;;12.65;100.00
50123;BME280;36021;48.670;6.184;2023-02-17T11:31:26;100133.31;;;12.62;100.00
50123;BME280;36021;48.670;6.184;2023-02-17T11:33:52;100129.47;;;12.52;100.00
50123;BME280;36021;48.670;6.184;2023-02-17T11:36:22;100133.31;;;12.57;100.00
50123;BME280;36021;48.670;6.184;2023-02-17T11:38:48;100133.88;;;12.53;100.00
50123;BME280;36021;48.670;6.184;2023-02-17T11:41:14;100121.72;;;12.54;100.00
50123;BME280;36021;48.670;6.184;2023-02-17T11:43:49;100124.53;;;12.39;100.00
50123;BME280;36021;48.670;6.184;2023-02-17T11:46:37;100118.41;;;12.52;100.00
50123;BME280;36021;48.670;6.184;2023-02-17T11:49:24;100117.56;;;12.62;100.00
50123;BME280;36021;48.670;6.184;2023-02-17T11:57:32;100088.22;;;14.27;100.00
50123;BME280;36021;48.670;6.184;2023-02-17T12:15:23;100085.09;;;14.38;100.00
50123;BME280;36021;48.670;6.184;2023-02-17T12:20:27;100095.00;;;13.87;100.00
50123;BME280;36021;48.670;6.184;2023-02-17T12:22:59;100082.72;;;13.59;100.00
50123;BME280;36021;48.670;6.184;2023-02-17T12:25:32;100088.47;;;13.29;100.00
50123;BME280;36021;48.670;6.184;2023-02-17T12:35:49;100088.94;;;12.92;100.00
50123;BME280;36021;48.670;6.184;2023-02-17T12:38:30;100100.09;;;12.72;100.00
50123;BME280;36021;48.670;6.184;2023-02-17T12:41:17;100080.44;;;12.78;100.00
50123;BME280;36021;48.670;6.184;2023-02-17T12:43:46;100066.59;;;12.78;100.00
50123;BME280;36021;48.670;6.184;2023-02-17T12:46:18;100082.41;;;12.68;100.00
50123;BME280;36021;48.670;6.184;2023-02-17T12:48:47;100080.72;;;12.67;100.00
50123;BME280;36021;48.670;6.184;2023-02-17T12:51:16;100067.44;;;12.74;100.00
50123;BME280;36021;48.670;6.184;2023-02-17T12:53:54;100060.44;;;12.91;100.00
50123;BME280;36021;48.670;6.184;2023-02-17T12:58:57;100060.66;;;13.49;100.00
50123;BME280;36021;48.670;6.184;2023-02-17T13:01:28;100062.47;;;13.64;100.00
50123;BME280;36021;48.670;6.184;2023-02-17T13:03:57;100078.59;;;13.56;100.00
50123;BME280;36021;48.670;6.184;2023-02-17T13:08:50;100077.06;;;13.35;100.00
50123;BME280;36021;48.670;6.184;2023-02-17T13:11:27;100073.00;;;13.28;100.00
50123;BME280;36021;48.670;6.184;2023-02-17T13:13:53;100065.06;;;13.11;100.00
50123;BME280;36021;48.670;6.184;2023-02-17T13:16:19;100076.94;;;13.17;100.00
50123;BME280;36021;48.670;6.184;2023-02-17T13:18:46;100085.03;;;12.93;100.00
50123;BME280;36021;48.670;6.184;2023-02-17T13:24:05;100099.06;;;12.52;100.00
50123;BME280;36021;48.670;6.184;2023-02-17T13:26:32;100098.53;;;12.45;100.00
50123;BME280;36021;48.670;6.184;2023-02-17T13:32:05;100097.41;;;12.46;100.00
50123;BME280;36021;48.670;6.184;2023-02-17T13:34:37;100094.41;;;12.28;100.00
50123;BME280;36021;48.670;6.184;2023-02-17T13:39:47;100093.81;;;12.46;100.00
50123;BME280;36021;48.670;6.184;2023-02-17T13:44:57;100089.34;;;12.60;100.00
50123;BME280;36021;48.670;6.184;2023-02-17T13:47:35;100081.31;;;12.64;100.00
50123;BME280;36021;48.670;6.184;2023-02-17T13:50:01;100082.72;;;12.56;100.00
50123;BME280;36021;48.670;6.184;2023-02-17T13:52:28;100082.41;;;12.68;100.00
50123;BME280;36021;48.670;6.184;2023-02-17T13:54:55;100104.00;;;12.61;100.00
50123;BME280;36021;48.670;6.184;2023-02-17T13:57:25;100091.78;;;12.67;100.00
50123;BME280;36021;48.670;6.184;2023-02-17T13:59:51;100090.19;;;12.56;100.00
50123;BME280;36021;48.670;6.184;2023-02-17T14:02:18;100095.25;;;12.28;100.00
50123;BME280;36021;48.670;6.184;2023-02-17T14:04:44;100096.91;;;12.29;100.00
50123;BME280;36021;48.670;6.184;2023-02-17T14:07:10;100091.63;;;12.38;100.00
50123;BME280;36021;48.670;6.184;2023-02-17T14:09:36;100079.78;;;12.22;100.00
50123;BME280;36021;48.670;6.184;2023-02-17T14:12:04;100088.31;;;12.31;100.00
50123;BME280;36021;48.670;6.184;2023-02-17T14:14:34;100074.22;;;12.32;100.00
50123;BME280;36021;48.670;6.184;2023-02-17T14:17:11;100090.81;;;12.32;100.00
50123;BME280;36021;48.670;6.184;2023-02-17T14:19:42;100091.66;;;12.33;100.00